Share

Cruz Bay, VI

12:26 AM AST on April 24, 2014 (GMT -0400)
Great Cruz Bay, St John (IVISTJOH4) Elev 59 ft | 18.33 °N, 64.79 °W | Change Station

Current weather conditions updated 58 seconds ago

Scattered Clouds
Scattered Clouds
77.2 °F
Feels Like 79 °F
N
2.0
Wind Variable Wind from East
Gusts 3.0 mph
Sunrise 5:56 AM
Sunset 6:38 PM
Moon Waning Crescent

Today is forecast to be Cooler than yesterday.

Pressure 30.00 in
Visibility 10.0 miles
Clouds Few 5500 ft
Scattered Clouds 8500 ft
Heat Index 79 °F
Dew Point 73 °F
Humidity 88%
Rainfall 0.00 in
Snow Depth Not available.
UV 0 out of 16
Pollen Not available.
Air Quality Not available.
Flu Activity No Activity
METAR TJSJ 240356Z 13005KT 10SM FEW055 SCT085 28/22 A3000 RMK AO2 SLP158 T02780222 403330261

More Conditions Fewer Conditions

Pressure 30.00 in
Visibility 10.0 miles
Clouds Few 5500 ft
Scattered Clouds 8500 ft
Heat Index 79 °F
Dew Point 73 °F
Humidity 88%
Rainfall 0.00 in
Snow Depth Not available.
UV 0 out of 16
Pollen Not available.
Air Quality Not available.
Flu Activity No Activity
METAR TJSJ 240356Z 13005KT 10SM FEW055 SCT085 28/22 A3000 RMK AO2 SLP158 T02780222 403330261

More Conditions Fewer Conditions

10-Day Weather Forecast

Almanac

Astronomy

Apr. 24, 2014 Rise Set
Actual Time 5:56 AM AST 6:38 PM AST
Civil Twilight 5:33 AM AST 7:01 PM AST
Nautical Twilight 5:07 AM AST 7:27 PM AST
Astronomical Twilight 4:40 AM AST 7:54 PM AST
Moon 2:21 AM AST 2:28 PM AST
Length of Visible Light 13h 27m
Length of Day
12h 42m
Tomorrow will be 0m 57s longer.
Waning Crescent, 29% of the Moon is Illuminated
Today
Waning Crescent
Apr 29
New
May 6
First Quarter
May 14
Full
May 21
Last Quarter

Community

  • Stacked
    Stacked
  • Balance
    Balance
  • Nestled In
    Nestled In
  • Stunning Sunrise
    Stunning Sunrise
  • spring flowers
    spring flowers

WunderPhotos

Upload Photos

1,704,560 photos uploaded!

WunderBlogs® & News

Nearby

Snow Depth

Station Depth Elevation
No new snow has been reported.

Coastal Water Temperatures

Place Temperature
Yabucoa Harbor, PR 82.0 °F
Esperanza, PR 82.9 °F
Charlotte Amalie, VI 82.9 °F

Earthquake Activity

City Distance Mag. Time & Date
No recent earthquake activity has been reported nearby.
Minimum magnitude displayed is 2.5.

Nearby Weather Stations

Station Location Temp. Heat Index Dew Point Humidity Wind Precip. Elev Updated Type
Great Cruz Bay, St John, St John 77.2 °F 79 °F 73 °F 88% East  at  2.0 mph 0.00 in / hr 59 ft 12:25 AM AST Normal
Estate Bethany 76.3 °F 77 °F 73 °F 90% SSE  at  7.0 mph 0.00 in / hr 443 ft 12:21 AM AST Normal
Bovoni, St Thomas 77.7 °F 80 °F 73 °F 86% ESE  at  5.0 mph 0.00 in / hr 217 ft 12:26 AM AST Rapid Fire
NorthSide, St Thomas 75.4 °F 75 °F 73 °F 92% SSE  at  0.0 mph 0.00 in / hr 728 ft 12:26 AM AST Rapid Fire

Show More Stations Show Fewer Stations

What do you think?

We're not finished. Please let us know what you like, what you don't like, and what you are still missing.